Time;durP1;ratioP1;P1;durP2;ratioP2;P2;SDS_P1;SDS_P2;PMS_P1;PMS_P2;Temp;Humidity;BMP_temperature;BMP_pressure;BME280_temperature;BME280_humidity;BME280_pressure;Samples;Min_cycle;Max_cycle;Signal;HPM_P1;HPM_P2
2023/01/03 00:00:46;;;;;;;29.35;21.85;;;5.10;90.20;;;;;;4999926;28;20034;-75
2023/01/03 00:03:15;;;;;;;28.15;18.52;;;5.10;90.30;;;;;;4993389;28;20069;-75
2023/01/03 00:05:42;;;;;;;22.40;16.58;;;5.00;90.30;;;;;;5005701;28;20084;-74
2023/01/03 00:08:08;;;;;;;21.40;15.35;;;5.00;90.40;;;;;;4997340;28;20064;-75
2023/01/03 00:10:34;;;;;;;23.60;17.75;;;5.00;90.40;;;;;;4994775;28;20109;-76
2023/01/03 00:12:59;;;;;;;24.30;17.23;;;5.00;90.40;;;;;;5006423;28;20036;-75
2023/01/03 00:15:25;;;;;;;25.48;17.65;;;5.00;90.50;;;;;;5000426;28;20050;-75
2023/01/03 00:17:52;;;;;;;24.90;18.25;;;5.00;90.60;;;;;;4994645;28;20334;-77
2023/01/03 00:20:18;;;;;;;27.52;19.15;;;4.90;90.60;;;;;;4997865;28;20074;-76
2023/01/03 00:22:44;;;;;;;26.42;18.48;;;5.00;90.60;;;;;;4996129;28;20191;-75
2023/01/03 00:25:09;;;;;;;28.02;18.67;;;4.90;90.60;;;;;;4997813;28;20022;-75
2023/01/03 00:27:35;;;;;;;23.05;17.38;;;4.90;90.60;;;;;;4997063;28;20125;-75
2023/01/03 00:30:01;;;;;;;23.38;16.52;;;4.90;90.70;;;;;;5002237;28;20037;-74
2023/01/03 00:32:27;;;;;;;22.95;17.35;;;4.90;90.80;;;;;;5000478;28;20036;-76
2023/01/03 00:34:52;;;;;;;21.95;16.10;;;4.90;90.80;;;;;;5001147;28;20083;-75
2023/01/03 00:37:18;;;;;;;20.55;16.30;;;4.90;90.80;;;;;;4993193;28;20034;-75
2023/01/03 00:39:43;;;;;;;21.42;14.70;;;4.90;90.90;;;;;;4995621;28;20478;-76
2023/01/03 00:42:09;;;;;;;19.38;13.75;;;4.90;90.90;;;;;;4996422;28;20049;-75
2023/01/03 00:44:35;;;;;;;17.98;13.38;;;4.90;91.00;;;;;;5005473;28;20037;-75
2023/01/03 00:47:01;;;;;;;20.25;14.27;;;4.90;91.00;;;;;;4997938;28;20026;-74
2023/01/03 00:49:26;;;;;;;17.45;13.40;;;4.90;91.10;;;;;;4998281;28;20088;-75
2023/01/03 00:51:52;;;;;;;19.83;12.77;;;4.90;91.10;;;;;;4999143;28;20129;-75
2023/01/03 00:54:19;;;;;;;21.67;13.43;;;4.80;91.10;;;;;;4995724;28;20065;-76
2023/01/03 00:56:47;;;;;;;16.83;12.23;;;4.90;91.20;;;;;;4999666;28;20026;-78
2023/01/03 00:59:14;;;;;;;18.13;12.68;;;4.90;91.20;;;;;;4997544;28;20045;-76
2023/01/03 01:01:44;;;;;;;17.52;12.75;;;4.90;91.20;;;;;;4995641;28;20417;-74
2023/01/03 01:04:29;;;;;;;22.40;12.95;;;4.90;91.20;;;;;;4980360;28;20026;-76
2023/01/03 01:07:01;;;;;;;18.02;12.38;;;4.90;91.30;;;;;;4992438;28;20569;-75
2023/01/03 01:09:29;;;;;;;16.77;12.48;;;4.90;91.30;;;;;;4994568;28;20192;-74
2023/01/03 01:11:55;;;;;;;19.65;12.45;;;4.90;91.20;;;;;;4998730;28;20033;-75
2023/01/03 01:14:23;;;;;;;16.83;11.55;;;4.80;91.20;;;;;;4993066;28;20516;-76
2023/01/03 01:16:58;;;;;;;18.85;12.73;;;4.80;91.20;;;;;;5001281;28;20140;-74
2023/01/03 01:19:32;;;;;;;19.17;11.80;;;4.70;91.30;;;;;;4997265;28;20446;-74
2023/01/03 01:21:59;;;;;;;17.85;12.40;;;4.80;91.40;;;;;;4999407;28;20366;-75
2023/01/03 01:24:25;;;;;;;16.02;11.40;;;4.70;91.40;;;;;;5000718;28;20026;-76
2023/01/03 01:26:51;;;;;;;20.02;14.02;;;4.70;91.30;;;;;;4995631;28;20030;-74
2023/01/03 01:29:17;;;;;;;22.38;13.43;;;4.80;91.50;;;;;;4997773;28;20030;-74
2023/01/03 01:31:44;;;;;;;22.35;13.70;;;4.60;91.90;;;;;;5002607;28;20088;-75
2023/01/03 01:34:11;;;;;;;21.23;13.68;;;4.70;92.20;;;;;;5002726;28;20112;-75
2023/01/03 01:36:39;;;;;;;20.70;13.52;;;4.60;92.30;;;;;;4991557;28;20494;-75
2023/01/03 01:39:12;;;;;;;15.07;11.38;;;4.60;92.50;;;;;;4995319;28;20034;-75
2023/01/03 01:44:43;;;;;;;19.10;12.90;;;4.60;92.60;;;;;;5002193;28;20508;-77
2023/01/03 01:47:20;;;;;;;18.63;10.80;;;4.60;92.70;;;;;;5000521;28;20096;-77
2023/01/03 01:49:48;;;;;;;18.73;11.00;;;4.60;92.80;;;;;;4994471;28;20124;-76
2023/01/03 01:52:16;;;;;;;18.50;11.25;;;4.60;92.90;;;;;;5001321;28;20033;-75
2023/01/03 01:54:43;;;;;;;19.10;11.85;;;4.60;93.10;;;;;;4993570;28;20026;-75
2023/01/03 01:57:14;;;;;;;26.33;12.90;;;4.70;93.10;;;;;;4998867;28;20072;-77
2023/01/03 01:59:40;;;;;;;23.52;12.27;;;4.70;93.20;;;;;;5005136;28;20037;-76
2023/01/03 02:02:06;;;;;;;23.88;12.00;;;4.70;93.30;;;;;;5002764;28;20289;-77
2023/01/03 02:04:36;;;;;;;15.98;11.80;;;4.80;93.30;;;;;;5001966;28;20033;-73
2023/01/03 02:07:02;;;;;;;22.80;11.48;;;4.80;93.40;;;;;;4999161;28;20048;-77
2023/01/03 02:09:31;;;;;;;23.55;13.38;;;4.80;93.50;;;;;;5004833;28;20029;-74
2023/01/03 02:15:09;;;;;;;23.08;12.57;;;4.80;93.50;;;;;;5000960;28;20060;-76
2023/01/03 02:17:47;;;;;;;19.88;12.93;;;4.80;93.60;;;;;;4996307;28;20039;-76
2023/01/03 02:20:22;;;;;;;24.50;14.05;;;4.80;93.60;;;;;;4996826;28;20038;-76
2023/01/03 02:23:10;;;;;;;19.33;14.43;;;4.80;93.60;;;;;;5008001;28;20096;-76
2023/01/03 02:25:57;;;;;;;27.17;14.75;;;4.80;93.70;;;;;;5010208;28;20218;-74
2023/01/03 02:28:43;;;;;;;23.85;14.18;;;4.80;93.70;;;;;;5010149;28;20040;-75
2023/01/03 02:31:24;;;;;;;24.08;14.73;;;4.90;93.80;;;;;;5003324;28;20038;-74
2023/01/03 02:34:01;;;;;;;19.60;12.93;;;4.90;93.70;;;;;;4994077;28;20022;-75
2023/01/03 02:36:59;;;;;;;19.67;13.38;;;4.90;93.70;;;;;;5014320;28;20037;-75
2023/01/03 02:39:42;;;;;;;18.80;12.45;;;4.80;93.60;;;;;;5010631;28;20353;-74
2023/01/03 02:45:11;;;;;;;21.90;12.77;;;4.80;93.60;;;;;;5005824;28;20559;-77
2023/01/03 02:47:51;;;;;;;20.13;13.13;;;4.70;93.60;;;;;;5005261;28;20116;-76
2023/01/03 02:50:21;;;;;;;20.98;13.05;;;4.60;93.60;;;;;;5005692;28;20513;-74
2023/01/03 02:52:49;;;;;;;20.88;12.95;;;4.60;93.70;;;;;;5005328;28;20028;-77
2023/01/03 02:55:25;;;;;;;21.10;12.63;;;4.60;93.70;;;;;;4998352;28;20077;-74
2023/01/03 02:57:57;;;;;;;22.77;13.70;;;4.60;93.70;;;;;;5009443;28;20453;-74
2023/01/03 03:00:27;;;;;;;19.67;13.93;;;4.60;93.70;;;;;;5000395;28;20501;-74
2023/01/03 03:02:58;;;;;;;19.73;13.88;;;4.60;93.70;;;;;;5003464;28;20235;-74
2023/01/03 03:05:35;;;;;;;21.00;13.93;;;4.60;93.60;;;;;;5004049;28;20050;-76
2023/01/03 03:08:01;;;;;;;23.10;14.55;;;4.60;93.80;;;;;;5008944;28;20022;-74
2023/01/03 03:13:35;;;;;;;23.83;15.07;;;4.70;93.90;;;;;;4981380;28;20045;-75
2023/01/03 03:16:04;;;;;;;23.50;14.48;;;4.80;93.90;;;;;;4981254;28;20098;-77
2023/01/03 03:18:56;;;;;;;31.83;19.95;;;4.90;93.80;;;;;;4984299;28;20057;-74
2023/01/03 03:29:54;;;;;;;29.15;18.90;;;5.10;93.70;;;;;;4977997;28;20045;-75
2023/01/03 03:32:23;;;;;;;31.15;19.27;;;5.10;93.70;;;;;;4978537;28;20031;-75
2023/01/03 03:34:49;;;;;;;30.23;20.10;;;5.10;93.70;;;;;;4976274;28;20030;-75
2023/01/03 03:37:18;;;;;;;28.65;16.95;;;5.20;93.80;;;;;;4980985;28;20047;-76
2023/01/03 03:45:39;;;;;;;25.65;16.92;;;5.50;94.00;;;;;;4980923;28;20045;-77
2023/01/03 03:48:24;;;;;;;23.63;15.68;;;5.60;93.90;;;;;;4981180;28;20054;-76
2023/01/03 03:51:10;;;;;;;21.35;14.18;;;5.60;93.80;;;;;;4982535;28;20082;-74
2023/01/03 03:53:38;;;;;;;24.20;14.32;;;5.60;93.60;;;;;;4978822;28;20049;-74
2023/01/03 03:56:08;;;;;;;21.48;13.60;;;5.60;93.60;;;;;;4978396;28;20410;-75
2023/01/03 03:58:55;;;;;;;20.10;14.38;;;5.70;93.60;;;;;;4982696;28;20037;-76
2023/01/03 04:01:22;;;;;;;23.63;15.43;;;5.70;93.40;;;;;;4974429;28;20061;-75
2023/01/03 04:03:50;;;;;;;19.27;14.25;;;5.80;93.40;;;;;;4982614;28;20031;-77
2023/01/03 04:06:34;;;;;;;22.88;13.93;;;5.80;93.40;;;;;;4983560;28;20042;-75
2023/01/03 04:09:00;;;;;;;17.57;12.07;;;5.90;93.30;;;;;;4980564;28;20042;-76
2023/01/03 04:11:26;;;;;;;19.55;12.77;;;6.00;93.20;;;;;;4974834;28;20293;-75
2023/01/03 04:13:51;;;;;;;20.75;12.65;;;6.00;93.10;;;;;;4973871;28;20042;-78
2023/01/03 04:16:17;;;;;;;29.33;14.85;;;6.00;93.10;;;;;;4981002;28;20080;-74
2023/01/03 04:18:43;;;;;;;19.88;13.48;;;6.10;93.10;;;;;;4974557;28;20076;-75
2023/01/03 04:21:09;;;;;;;22.33;14.05;;;6.10;93.00;;;;;;4980205;28;20038;-77
2023/01/03 04:23:34;;;;;;;19.15;12.57;;;6.10;93.10;;;;;;4980157;28;20377;-76
2023/01/03 04:26:00;;;;;;;22.58;13.05;;;6.20;93.00;;;;;;4977999;28;20046;-75
2023/01/03 04:28:26;;;;;;;22.63;12.90;;;6.20;93.00;;;;;;4978731;28;20022;-76
2023/01/03 04:30:51;;;;;;;24.17;13.65;;;6.30;92.90;;;;;;4981217;28;20065;-74
2023/01/03 04:33:17;;;;;;;22.20;13.25;;;6.40;92.90;;;;;;4975130;28;20061;-77
2023/01/03 04:35:43;;;;;;;21.05;14.27;;;6.40;92.80;;;;;;4977842;28;20117;-77
2023/01/03 04:38:08;;;;;;;19.63;13.63;;;6.40;92.70;;;;;;4985047;28;20110;-75
2023/01/03 04:40:35;;;;;;;22.63;14.30;;;6.40;92.70;;;;;;4979294;28;20039;-74
2023/01/03 04:45:47;;;;;;;27.77;16.40;;;6.40;92.70;;;;;;4979892;28;20104;-77
2023/01/03 04:48:13;;;;;;;27.13;15.90;;;6.40;92.60;;;;;;4976923;28;20018;-74
2023/01/03 04:50:38;;;;;;;24.50;15.80;;;6.40;92.60;;;;;;4981929;28;20034;-78
2023/01/03 04:53:04;;;;;;;24.33;15.52;;;6.40;92.50;;;;;;4980354;28;20378;-74
2023/01/03 04:55:30;;;;;;;25.42;17.67;;;6.30;92.50;;;;;;4978607;28;20054;-74
2023/01/03 04:57:55;;;;;;;28.02;16.73;;;6.30;92.60;;;;;;4977443;28;20439;-74
2023/01/03 05:00:21;;;;;;;28.70;17.55;;;6.20;92.60;;;;;;4977799;28;20526;-74
2023/01/03 05:02:47;;;;;;;29.48;16.77;;;6.20;92.70;;;;;;4982214;28;20286;-75
2023/01/03 05:05:13;;;;;;;30.15;18.67;;;6.20;92.70;;;;;;4979555;28;20030;-74
2023/01/03 05:07:39;;;;;;;25.95;16.88;;;6.20;92.70;;;;;;4982435;28;20030;-75
2023/01/03 05:10:05;;;;;;;28.17;17.48;;;6.10;92.60;;;;;;4981267;28;20034;-77
2023/01/03 05:12:30;;;;;;;31.00;18.67;;;6.10;92.70;;;;;;4977148;28;20038;-75
2023/01/03 05:14:56;;;;;;;30.17;18.23;;;6.10;92.90;;;;;;4975049;28;20043;-75
2023/01/03 05:17:22;;;;;;;36.60;20.88;;;6.10;93.00;;;;;;4980889;28;20080;-75
2023/01/03 05:28:02;;;;;;;;;;;6.10;93.30;;;;;;4977325;28;20060;-77
2023/01/03 05:30:28;;;;;;;34.17;21.50;;;6.10;93.40;;;;;;4973050;28;19956;-75
2023/01/03 05:32:53;;;;;;;37.10;23.25;;;6.10;93.40;;;;;;4983275;28;20029;-75
2023/01/03 05:35:19;;;;;;;35.47;22.75;;;6.10;93.40;;;;;;4982388;28;20027;-76
2023/01/03 05:37:45;;;;;;;34.35;22.60;;;6.20;93.40;;;;;;4984832;28;20045;-78
2023/01/03 05:40:11;;;;;;;33.08;23.30;;;6.10;93.40;;;;;;4977201;28;20039;-75
2023/01/03 05:42:37;;;;;;;36.20;23.77;;;6.10;93.40;;;;;;4986030;28;20018;-74
2023/01/03 05:45:03;;;;;;;35.17;23.33;;;6.10;93.50;;;;;;4985102;28;20041;-76
2023/01/03 05:47:29;;;;;;;30.13;21.67;;;6.10;93.40;;;;;;4984578;28;20119;-76
2023/01/03 05:49:55;;;;;;;36.95;24.40;;;6.20;93.50;;;;;;4986916;28;20123;-74
2023/01/03 05:52:21;;;;;;;35.05;23.85;;;6.10;93.40;;;;;;4985877;28;20069;-74
2023/01/03 05:54:47;;;;;;;37.03;24.45;;;6.10;93.50;;;;;;4981171;28;20026;-77
2023/01/03 05:57:13;;;;;;;35.65;25.13;;;6.10;93.60;;;;;;4984869;28;20472;-74
2023/01/03 05:59:38;;;;;;;39.22;24.80;;;6.10;93.50;;;;;;4985266;28;20023;-75
2023/01/03 06:02:04;;;;;;;35.53;25.63;;;6.10;93.60;;;;;;4986194;28;20038;-75
2023/01/03 06:04:30;;;;;;;40.00;26.13;;;6.10;93.60;;;;;;4979478;28;20026;-75
2023/01/03 06:06:55;;;;;;;42.58;26.83;;;6.10;93.60;;;;;;4983946;28;20026;-75
2023/01/03 06:09:21;;;;;;;39.03;26.00;;;6.10;93.70;;;;;;4985124;28;20023;-75
2023/01/03 06:11:46;;;;;;;36.53;24.92;;;6.10;93.80;;;;;;4973234;28;20034;-75
2023/01/03 06:14:12;;;;;;;38.42;25.58;;;6.10;93.80;;;;;;4983064;28;20049;-77
2023/01/03 06:19:22;;;;;;;40.72;27.38;;;6.10;93.80;;;;;;4985768;28;20434;-75
2023/01/03 06:21:48;;;;;;;38.58;26.65;;;6.10;93.90;;;;;;4984911;28;20042;-75
2023/01/03 06:24:14;;;;;;;39.42;27.60;;;6.10;93.90;;;;;;4982970;28;20295;-75
2023/01/03 06:26:39;;;;;;;42.85;29.10;;;6.20;94.00;;;;;;4974955;28;20046;-76
2023/01/03 06:29:06;;;;;;;44.10;29.58;;;6.20;94.00;;;;;;4978861;28;20046;-74
2023/01/03 06:31:31;;;;;;;45.72;30.25;;;6.20;94.00;;;;;;4979571;28;20463;-75
2023/01/03 06:33:57;;;;;;;40.83;29.02;;;6.20;94.00;;;;;;4984782;28;20097;-75
2023/01/03 06:36:24;;;;;;;44.30;30.75;;;6.30;94.00;;;;;;4985598;28;20068;-76
2023/01/03 06:38:51;;;;;;;47.58;30.92;;;6.40;94.00;;;;;;4984279;28;20026;-74
2023/01/03 06:41:16;;;;;;;48.95;31.10;;;6.40;94.00;;;;;;4985364;28;20034;-74
2023/01/03 06:43:42;;;;;;;46.97;30.23;;;6.40;94.00;;;;;;4983886;28;20382;-77
2023/01/03 06:54:29;;;;;;;47.80;30.50;;;6.60;94.20;;;;;;4984774;28;20638;-74
2023/01/03 06:56:55;;;;;;;46.72;30.40;;;6.70;94.10;;;;;;4981299;28;20030;-76
2023/01/03 06:59:22;;;;;;;50.08;30.98;;;6.80;94.10;;;;;;4982663;28;20457;-74
2023/01/03 07:01:49;;;;;;;47.28;31.08;;;6.80;94.10;;;;;;4980603;28;20084;-73
2023/01/03 07:04:16;;;;;;;45.85;30.45;;;6.80;94.10;;;;;;4977418;28;20467;-76
2023/01/03 07:06:42;;;;;;;44.20;30.23;;;6.80;94.10;;;;;;4984197;28;20049;-74
2023/01/03 07:09:08;;;;;;;53.22;31.48;;;6.90;94.00;;;;;;4984460;28;20026;-73
2023/01/03 07:11:35;;;;;;;50.40;31.60;;;6.90;94.00;;;;;;4982570;28;20157;-76
2023/01/03 07:14:02;;;;;;;47.05;31.63;;;7.00;93.90;;;;;;4985102;28;20042;-74
2023/01/03 07:16:31;;;;;;;41.28;29.50;;;7.00;93.90;;;;;;4980180;28;20028;-75
2023/01/03 07:18:58;;;;;;;46.55;28.83;;;7.00;93.80;;;;;;4978175;28;20419;-74
2023/01/03 07:21:25;;;;;;;49.58;29.55;;;7.00;93.80;;;;;;4977393;28;20034;-74
2023/01/03 07:23:55;;;;;;;47.90;32.92;;;7.00;93.80;;;;;;4980342;28;20571;-74
2023/01/03 07:26:23;;;;;;;48.15;30.77;;;7.10;93.80;;;;;;4983391;28;20395;-76
2023/01/03 07:28:48;;;;;;;46.72;29.67;;;7.00;93.80;;;;;;4983589;28;20035;-75
2023/01/03 07:31:14;;;;;;;46.15;29.15;;;7.00;93.70;;;;;;4978560;28;20637;-74
2023/01/03 07:33:40;;;;;;;43.00;29.00;;;7.00;93.60;;;;;;4976023;28;20267;-76
2023/01/03 07:36:09;;;;;;;43.90;27.67;;;7.00;93.50;;;;;;4978608;28;20043;-74
2023/01/03 07:38:35;;;;;;;46.95;29.02;;;7.00;93.50;;;;;;4980617;28;20058;-75
2023/01/03 07:41:02;;;;;;;46.47;29.10;;;7.00;93.50;;;;;;4977732;28;20062;-75
2023/01/03 07:43:37;;;;;;;41.80;27.60;;;7.00;93.40;;;;;;4974191;28;20387;-75
2023/01/03 07:46:07;;;;;;;;;;;7.00;93.40;;;;;;4975819;28;20030;-75
2023/01/03 07:48:33;;;;;;;41.55;27.48;;;7.00;93.40;;;;;;4973051;28;19910;-75
2023/01/03 07:50:59;;;;;;;47.80;28.42;;;7.00;93.40;;;;;;4978027;28;20066;-78
2023/01/03 07:53:25;;;;;;;41.30;26.23;;;6.90;93.50;;;;;;4977990;28;20479;-75
2023/01/03 07:55:51;;;;;;;44.53;28.65;;;6.90;93.40;;;;;;4972092;28;20030;-75
2023/01/03 07:58:16;;;;;;;40.63;27.27;;;6.90;93.30;;;;;;4974433;28;20034;-78
2023/01/03 08:00:42;;;;;;;39.65;26.67;;;6.90;93.30;;;;;;4982031;28;20121;-78
2023/01/03 08:03:08;;;;;;;41.30;27.60;;;6.80;93.30;;;;;;4980198;28;20038;-79
2023/01/03 08:05:34;;;;;;;43.40;27.52;;;6.80;93.30;;;;;;4984196;28;20105;-77
2023/01/03 08:08:01;;;;;;;41.65;26.60;;;6.70;93.30;;;;;;4981005;28;20085;-77
2023/01/03 08:13:17;;;;;;;38.17;26.00;;;6.70;93.50;;;;;;4977346;28;20506;-77
2023/01/03 08:15:51;;;;;;;37.83;25.40;;;6.60;93.60;;;;;;4973639;28;20525;-79
2023/01/03 08:18:20;;;;;;;41.88;25.77;;;6.70;93.60;;;;;;4973064;28;20579;-78
2023/01/03 08:20:46;;;;;;;39.45;25.25;;;6.60;93.50;;;;;;4970077;28;20100;-77
2023/01/03 08:23:13;;;;;;;34.85;23.75;;;6.60;93.60;;;;;;4966246;28;20483;-78
2023/01/03 08:25:39;;;;;;;32.38;22.83;;;6.60;93.60;;;;;;4972171;28;20034;-76
2023/01/03 08:28:06;;;;;;;35.85;23.75;;;6.60;93.60;;;;;;4974833;28;20277;-76
2023/01/03 08:30:32;;;;;;;31.85;23.15;;;6.60;93.70;;;;;;4972078;28;20467;-78
2023/01/03 08:33:01;;;;;;;37.75;22.52;;;6.60;93.70;;;;;;4971258;28;20381;-78
2023/01/03 08:35:31;;;;;;;35.08;20.88;;;6.60;93.70;;;;;;4971153;28;20022;-79
2023/01/03 08:38:00;;;;;;;36.55;21.63;;;6.60;93.80;;;;;;4972669;28;20027;-76
2023/01/03 08:40:26;;;;;;;34.50;22.02;;;6.60;93.80;;;;;;4974790;28;20455;-77
2023/01/03 08:42:52;;;;;;;31.50;22.02;;;6.60;93.80;;;;;;4981191;28;20030;-77
2023/01/03 08:45:18;;;;;;;30.10;19.77;;;6.70;93.80;;;;;;4979461;28;20105;-77
2023/01/03 08:47:44;;;;;;;31.63;19.75;;;6.80;93.90;;;;;;4981577;28;20034;-75
2023/01/03 08:50:11;;;;;;;30.75;18.38;;;6.80;93.80;;;;;;4974200;28;20033;-75
2023/01/03 08:52:37;;;;;;;30.33;18.30;;;6.80;93.70;;;;;;4979494;28;20049;-77
2023/01/03 08:55:04;;;;;;;31.05;17.13;;;6.90;93.60;;;;;;4978805;28;20547;-77
2023/01/03 08:57:29;;;;;;;29.60;16.95;;;6.90;93.50;;;;;;4982268;28;20109;-78
2023/01/03 08:59:55;;;;;;;27.27;16.88;;;6.90;93.40;;;;;;4980913;28;20117;-76
2023/01/03 09:02:21;;;;;;;27.58;17.70;;;7.00;93.40;;;;;;4978543;28;20114;-75
2023/01/03 09:04:46;;;;;;;24.00;16.15;;;7.00;93.40;;;;;;4977324;28;20025;-75
2023/01/03 09:07:12;;;;;;;23.70;14.65;;;7.10;93.40;;;;;;4979026;28;20057;-77
2023/01/03 09:09:38;;;;;;;23.20;13.95;;;7.10;93.20;;;;;;4977315;28;20026;-77
2023/01/03 09:12:03;;;;;;;24.20;14.52;;;7.20;93.10;;;;;;4978459;28;20042;-77
2023/01/03 09:14:30;;;;;;;25.25;13.25;;;7.20;92.90;;;;;;4978066;28;20082;-76
2023/01/03 09:16:55;;;;;;;23.52;12.60;;;7.20;92.90;;;;;;4978406;28;20038;-75
2023/01/03 09:19:21;;;;;;;21.45;13.15;;;7.30;93.00;;;;;;4977603;28;20052;-76
2023/01/03 09:21:46;;;;;;;24.23;13.60;;;7.40;92.90;;;;;;4980170;28;20554;-77
2023/01/03 09:24:12;;;;;;;26.90;14.10;;;7.50;92.60;;;;;;4976645;28;20030;-76
2023/01/03 09:26:38;;;;;;;23.67;13.43;;;7.70;92.30;;;;;;4978250;28;20506;-76
2023/01/03 09:29:04;;;;;;;23.50;13.00;;;7.80;92.00;;;;;;4977686;28;20038;-75
2023/01/03 09:31:33;;;;;;;19.05;12.02;;;7.90;91.70;;;;;;4979875;28;20047;-77
2023/01/03 09:34:04;;;;;;;20.90;11.73;;;8.00;91.50;;;;;;4979717;28;20025;-77
2023/01/03 09:36:30;;;;;;;20.33;10.90;;;8.10;91.00;;;;;;4979933;28;20052;-75
2023/01/03 09:38:56;;;;;;;18.83;10.85;;;8.30;90.70;;;;;;4985453;28;20097;-77
2023/01/03 09:41:24;;;;;;;18.23;10.88;;;8.40;90.30;;;;;;4982124;28;20026;-76
2023/01/03 09:43:55;;;;;;;19.75;10.38;;;8.60;89.90;;;;;;4978069;28;20026;-75
2023/01/03 09:46:25;;;;;;;20.55;9.50;;;8.70;89.20;;;;;;4982461;28;20034;-76
2023/01/03 09:48:54;;;;;;;24.50;9.75;;;8.70;88.60;;;;;;4975004;28;20022;-77
2023/01/03 10:03:45;;;;;;;18.63;7.75;;;8.60;89.00;;;;;;4978677;28;20038;-76
2023/01/03 10:06:40;;;;;;;16.02;8.27;;;8.80;88.60;;;;;;4981433;28;20109;-78
2023/01/03 10:09:28;;;;;;;13.50;7.65;;;8.90;88.10;;;;;;4984013;28;20049;-76
2023/01/03 10:11:54;;;;;;;17.42;8.02;;;8.90;88.00;;;;;;4978946;28;20036;-76
2023/01/03 10:14:31;;;;;;;15.80;7.63;;;9.00;87.90;;;;;;4980250;28;20050;-76
2023/01/03 10:17:32;;;;;;;17.80;8.77;;;9.00;87.70;;;;;;4977539;28;20027;-77
2023/01/03 10:20:33;;;;;;;20.20;9.20;;;8.90;87.50;;;;;;4983553;28;20049;-77
2023/01/03 10:23:00;;;;;;;15.15;10.50;;;8.90;87.80;;;;;;4980970;28;20113;-78
2023/01/03 10:25:27;;;;;;;18.15;8.65;;;8.80;87.90;;;;;;4983138;28;20053;-77
2023/01/03 10:27:59;;;;;;;14.55;7.70;;;8.90;88.00;;;;;;4983269;28;20022;-76
2023/01/03 10:30:48;;;;;;;15.73;8.15;;;8.90;88.10;;;;;;4985426;28;20149;-78
2023/01/03 10:33:32;;;;;;;14.40;7.82;;;9.00;88.10;;;;;;4981939;28;20030;-77
2023/01/03 10:35:58;;;;;;;13.48;6.38;;;9.10;88.00;;;;;;4988134;28;20042;-75
2023/01/03 10:38:24;;;;;;;12.95;6.00;;;9.10;87.40;;;;;;4988497;28;20727;-76
2023/01/03 10:40:54;;;;;;;14.10;6.18;;;9.10;87.50;;;;;;4984959;28;20030;-77
2023/01/03 10:43:38;;;;;;;15.45;6.35;;;9.20;87.50;;;;;;4985555;28;20048;-76
2023/01/03 10:46:12;;;;;;;15.73;7.13;;;9.30;87.50;;;;;;4983279;28;20030;-76
2023/01/03 10:48:47;;;;;;;15.25;8.07;;;9.40;87.30;;;;;;4983775;28;20125;-76
2023/01/03 10:51:37;;;;;;;10.63;5.53;;;9.40;87.00;;;;;;4978511;28;20045;-76
2023/01/03 10:54:27;;;;;;;11.90;6.60;;;9.40;86.80;;;;;;4985765;28;20081;-77
2023/01/03 10:56:53;;;;;;;14.73;6.75;;;9.30;86.90;;;;;;4981172;28;20061;-78
2023/01/03 10:59:29;;;;;;;16.48;7.93;;;9.40;87.10;;;;;;4981791;28;20426;-78
2023/01/03 11:02:13;;;;;;;15.70;7.72;;;9.50;86.80;;;;;;4983860;28;20027;-77
2023/01/03 11:04:39;;;;;;;12.98;6.70;;;9.60;86.30;;;;;;4983325;28;20561;-77
2023/01/03 11:07:08;;;;;;;15.00;6.53;;;9.60;86.30;;;;;;4980328;28;20034;-77
2023/01/03 11:09:49;;;;;;;13.25;5.88;;;9.70;86.20;;;;;;4982490;28;20439;-76
2023/01/03 11:12:35;;;;;;;12.10;5.57;;;9.80;86.00;;;;;;4984646;28;20039;-76
2023/01/03 11:15:09;;;;;;;14.18;7.05;;;10.00;85.70;;;;;;4983128;28;20156;-76
2023/01/03 11:17:34;;;;;;;14.38;7.95;;;10.10;85.20;;;;;;4981438;28;20044;-76
2023/01/03 11:20:00;;;;;;;13.10;5.22;;;10.20;84.70;;;;;;4983339;28;20023;-77
2023/01/03 11:22:39;;;;;;;12.80;6.60;;;10.40;84.00;;;;;;4984237;28;20041;-77
2023/01/03 11:25:26;;;;;;;12.85;4.95;;;10.40;84.00;;;;;;4982423;28;20272;-77
2023/01/03 11:28:00;;;;;;;12.95;4.68;;;10.50;83.60;;;;;;4978001;28;20061;-77
2023/01/03 11:30:37;;;;;;;10.50;5.63;;;10.60;83.00;;;;;;4977936;28;20038;-77
2023/01/03 11:33:20;;;;;;;13.23;6.65;;;10.40;83.30;;;;;;4980235;28;20023;-78
2023/01/03 11:35:57;;;;;;;17.33;5.50;;;10.40;83.50;;;;;;4986802;28;20030;-77
2023/01/03 11:38:49;;;;;;;12.05;4.88;;;10.40;83.00;;;;;;4992363;28;20030;-75
2023/01/03 11:41:22;;;;;;;13.25;5.30;;;10.30;83.40;;;;;;5002126;28;20035;-76
2023/01/03 11:44:31;;;;;;;12.32;4.80;;;10.20;83.80;;;;;;4985644;28;20026;-77
2023/01/03 11:47:21;;;;;;;14.68;5.35;;;10.10;84.00;;;;;;4986043;28;20073;-76
2023/01/03 11:49:50;;;;;;;15.15;5.85;;;10.00;84.40;;;;;;4986490;28;20031;-76
2023/01/03 11:52:46;;;;;;;16.55;5.50;;;9.90;84.60;;;;;;4988929;28;20049;-77
2023/01/03 11:55:53;;;;;;;20.67;5.88;;;9.90;84.90;;;;;;4979404;28;20117;-77
2023/01/03 11:59:02;;;;;;;13.82;5.55;;;9.90;84.60;;;;;;4984203;28;20041;-77
2023/01/03 12:01:47;;;;;;;12.05;5.10;;;9.90;85.10;;;;;;4981669;28;20038;-78
2023/01/03 12:04:30;;;;;;;15.45;5.22;;;10.10;85.20;;;;;;4973029;28;20117;-78
2023/01/03 12:07:14;;;;;;;13.45;4.97;;;10.20;84.70;;;;;;4974859;28;20035;-78
2023/01/03 12:10:38;;;;;;;12.25;4.93;;;10.00;84.50;;;;;;4973886;28;20043;-79
2023/01/03 12:13:25;;;;;;;14.40;5.43;;;9.90;84.80;;;;;;4928027;28;20076;-77
2023/01/03 12:16:26;;;;;;;17.23;5.18;;;10.00;84.90;;;;;;4978970;28;20141;-76
2023/01/03 12:19:25;;;;;;;14.82;4.95;;;10.10;84.60;;;;;;4976644;28;20385;-78
2023/01/03 12:22:14;;;;;;;15.63;4.40;;;10.10;84.50;;;;;;4982378;28;20100;-78
2023/01/03 12:24:54;;;;;;;19.90;5.28;;;10.10;84.50;;;;;;4974442;28;20039;-78
2023/01/03 12:27:27;;;;;;;14.07;4.30;;;10.20;84.30;;;;;;4979978;28;20042;-79
2023/01/03 12:29:56;;;;;;;14.73;5.43;;;10.20;84.00;;;;;;4977569;28;20033;-78
2023/01/03 12:32:41;;;;;;;13.18;5.07;;;10.20;84.20;;;;;;4979131;28;20679;-79
2023/01/03 12:35:22;;;;;;;11.77;4.88;;;10.20;84.00;;;;;;4979671;28;20034;-79
2023/01/03 12:37:50;;;;;;;13.85;5.32;;;10.20;84.20;;;;;;4974316;28;20058;-80
2023/01/03 12:40:45;;;;;;;13.27;4.60;;;10.30;84.00;;;;;;4976776;28;20034;-79
2023/01/03 12:43:19;;;;;;;13.07;4.95;;;10.30;83.90;;;;;;4973616;28;20111;-78
2023/01/03 12:46:05;;;;;;;18.60;5.60;;;10.20;84.00;;;;;;4973516;28;20134;-79
2023/01/03 12:48:58;;;;;;;19.60;5.97;;;10.20;83.90;;;;;;4975193;28;20035;-79
2023/01/03 12:51:24;;;;;;;19.73;7.82;;;10.30;83.90;;;;;;4977443;28;20562;-78
2023/01/03 12:54:34;;;;;;;18.63;7.88;;;10.30;83.50;;;;;;4975767;28;20553;-79
2023/01/03 12:57:21;;;;;;;26.13;10.43;;;10.40;83.60;;;;;;4988392;28;20501;-79
2023/01/03 12:59:59;;;;;;;16.05;7.55;;;10.40;83.30;;;;;;4992464;28;20368;-79
2023/01/03 13:02:58;;;;;;;15.32;5.75;;;10.40;83.30;;;;;;4993904;28;20065;-78
2023/01/03 13:05:43;;;;;;;18.52;6.03;;;10.30;83.50;;;;;;4994459;28;20544;-77
2023/01/03 13:08:20;;;;;;;11.90;4.75;;;10.20;83.90;;;;;;4994374;28;20044;-78
2023/01/03 13:10:51;;;;;;;10.15;3.58;;;10.20;83.80;;;;;;4993754;28;20088;-79
2023/01/03 13:13:19;;;;;;;16.05;4.70;;;10.20;83.70;;;;;;4994142;28;20053;-78
2023/01/03 13:15:46;;;;;;;18.48;4.97;;;10.30;83.70;;;;;;4995872;28;20513;-79
2023/01/03 13:18:27;;;;;;;13.55;4.50;;;10.40;83.40;;;;;;4995897;28;20117;-78
2023/01/03 13:20:54;;;;;;;15.55;5.05;;;10.40;83.20;;;;;;4996053;28;20037;-79
2023/01/03 13:23:56;;;;;;;13.38;4.28;;;10.50;83.20;;;;;;5000820;28;20033;-81
2023/01/03 13:26:27;;;;;;;13.80;5.00;;;10.50;83.20;;;;;;4999679;28;20026;-80
2023/01/03 13:29:31;;;;;;;14.95;4.57;;;10.50;83.20;;;;;;5004413;28;20014;-80
2023/01/03 13:32:19;;;;;;;14.30;4.22;;;10.50;82.60;;;;;;4999131;28;20038;-80
2023/01/03 13:35:05;;;;;;;13.98;4.90;;;10.40;82.90;;;;;;5012470;28;20370;-76
2023/01/03 13:37:34;;;;;;;17.85;5.50;;;10.40;83.20;;;;;;4997908;28;20038;-81
2023/01/03 13:40:15;;;;;;;11.32;4.70;;;10.40;83.30;;;;;;4996002;28;20034;-81
2023/01/03 13:42:42;;;;;;;12.35;4.32;;;10.30;83.40;;;;;;4999369;28;20498;-82
2023/01/03 13:45:13;;;;;;;17.67;5.22;;;10.10;83.70;;;;;;4998820;28;20037;-82
2023/01/03 13:47:44;;;;;;;15.07;4.55;;;10.10;84.00;;;;;;5000969;28;20060;-82
2023/01/03 13:50:32;;;;;;;14.27;4.55;;;10.00;84.30;;;;;;5016592;28;20081;-82
2023/01/03 13:53:04;;;;;;;15.80;5.13;;;10.10;84.40;;;;;;5001232;28;20560;-80
2023/01/03 13:55:46;;;;;;;14.90;5.50;;;10.00;84.70;;;;;;5013911;28;20101;-82
2023/01/03 13:58:36;;;;;;;16.70;6.05;;;10.00;84.70;;;;;;5002616;28;20369;-82
2023/01/03 14:01:14;;;;;;;15.85;5.60;;;10.00;84.70;;;;;;5002577;28;20030;-82
2023/01/03 14:04:17;;;;;;;12.98;4.82;;;10.00;84.60;;;;;;5006323;28;20080;-78
2023/01/03 14:07:06;;;;;;;16.50;5.53;;;10.10;84.30;;;;;;4994521;28;20628;-80